createdAt,value
2024-02-21T00:02:00.926Z,7.50
2024-02-21T00:04:36.546Z,7.46
2024-02-21T00:07:11.510Z,7.50
2024-02-21T00:09:46.398Z,7.42
2024-02-21T00:12:20.927Z,7.42
2024-02-21T00:14:55.511Z,7.40
2024-02-21T00:17:30.069Z,7.40
2024-02-21T00:20:04.954Z,7.40
2024-02-21T00:22:39.399Z,7.40
2024-02-21T00:25:14.756Z,7.40
2024-02-21T00:27:49.298Z,7.40
2024-02-21T00:30:23.962Z,7.40
2024-02-21T00:32:58.369Z,7.40
2024-02-21T00:35:32.999Z,7.46
2024-02-21T00:38:07.582Z,7.46
2024-02-21T00:40:42.150Z,7.42
2024-02-21T00:43:16.709Z,7.40
2024-02-21T00:45:51.028Z,7.48
2024-02-21T00:48:25.332Z,7.50
2024-02-21T00:50:59.686Z,7.50
2024-02-21T00:53:34.333Z,7.50
2024-02-21T00:56:10.129Z,7.50
2024-02-21T00:58:44.642Z,7.50
2024-02-21T01:01:25.923Z,7.50
2024-02-21T01:04:00.626Z,7.50
2024-02-21T01:06:35.371Z,7.50
2024-02-21T01:09:09.930Z,7.40
2024-02-21T01:11:44.469Z,7.40
2024-02-21T01:14:19.242Z,7.40
2024-02-21T01:16:53.738Z,7.40
2024-02-21T01:19:28.190Z,7.38
2024-02-21T01:22:02.760Z,7.30
2024-02-21T01:24:37.253Z,7.30
2024-02-21T01:27:11.962Z,7.32
2024-02-21T01:29:47.779Z,7.40
2024-02-21T01:32:25.703Z,7.40
2024-02-21T01:35:00.361Z,7.40
2024-02-21T01:37:34.770Z,7.38
2024-02-21T01:40:12.153Z,7.38
2024-02-21T01:42:46.560Z,7.40
2024-02-21T01:45:21.255Z,7.40
2024-02-21T01:47:56.202Z,7.40
2024-02-21T01:50:31.601Z,7.40
2024-02-21T01:53:06.684Z,7.42
2024-02-21T01:55:44.417Z,7.48
2024-02-21T01:58:21.122Z,7.50
2024-02-21T02:00:59.071Z,7.50
2024-02-21T02:03:34.009Z,7.50
2024-02-21T02:06:09.615Z,7.50
2024-02-21T02:08:44.588Z,7.50
2024-02-21T02:11:21.066Z,7.50
2024-02-21T02:13:55.779Z,7.40
2024-02-21T02:16:30.381Z,7.40
2024-02-21T02:19:05.145Z,7.40
2024-02-21T02:21:48.712Z,7.40
2024-02-21T02:24:24.588Z,7.40
2024-02-21T02:26:59.370Z,7.40
2024-02-21T02:29:36.084Z,7.40
2024-02-21T02:32:11.930Z,7.38
2024-02-21T02:34:46.445Z,7.34
2024-02-21T02:37:20.865Z,7.38
2024-02-21T02:39:55.288Z,7.38
2024-02-21T02:42:29.790Z,7.40
2024-02-21T02:45:04.647Z,7.40
2024-02-21T02:47:39.260Z,7.40
2024-02-21T02:50:15.252Z,7.38
2024-02-21T02:52:50.025Z,7.30
2024-02-21T02:55:25.130Z,7.30
2024-02-21T02:57:59.709Z,7.30
2024-02-21T03:00:37.312Z,7.30
2024-02-21T03:03:11.778Z,7.30
2024-02-21T03:05:46.287Z,7.30
2024-02-21T03:08:20.713Z,7.20
2024-02-21T03:10:55.292Z,7.20
2024-02-21T03:13:29.853Z,7.20
2024-02-21T03:16:04.411Z,7.20
2024-02-21T03:18:38.914Z,7.20
2024-02-21T03:21:13.427Z,7.14
2024-02-21T03:23:47.863Z,7.10
2024-02-21T03:26:22.339Z,7.10
2024-02-21T03:28:57.362Z,7.10
2024-02-21T03:31:32.332Z,7.10
2024-02-21T03:34:07.256Z,7.10
2024-02-21T03:36:41.696Z,7.10
2024-02-21T03:39:16.143Z,7.10
2024-02-21T03:41:50.604Z,7.10
2024-02-21T03:44:25.097Z,7.10
2024-02-21T03:46:59.555Z,7.18
2024-02-21T03:49:34.156Z,7.20
2024-02-21T03:52:09.520Z,7.20
2024-02-21T03:54:44.072Z,7.20
2024-02-21T03:57:20.239Z,7.20
2024-02-21T03:59:56.162Z,7.18
2024-02-21T04:02:30.710Z,7.10
2024-02-21T04:05:05.500Z,7.14
2024-02-21T04:07:40.236Z,7.20
2024-02-21T04:10:16.221Z,7.20
2024-02-21T04:12:51.677Z,7.18
2024-02-21T04:15:26.213Z,7.14
2024-02-21T04:18:00.667Z,7.16
2024-02-21T04:20:36.773Z,7.20
2024-02-21T04:23:11.192Z,7.20
2024-02-21T04:25:45.760Z,7.20
2024-02-21T04:28:20.587Z,7.20
2024-02-21T04:30:55.439Z,7.20
2024-02-21T04:33:29.948Z,7.10
2024-02-21T04:36:04.485Z,7.10
2024-02-21T04:38:40.352Z,7.10
2024-02-21T04:41:15.089Z,7.10
2024-02-21T04:43:49.978Z,7.10
2024-02-21T04:46:24.467Z,7.10
2024-02-21T04:48:59.267Z,7.10
2024-02-21T04:51:36.200Z,7.10
2024-02-21T04:54:11.405Z,7.10
2024-02-21T04:56:45.815Z,7.10
2024-02-21T04:59:20.555Z,7.10
2024-02-21T05:01:55.070Z,7.10
2024-02-21T05:04:29.750Z,7.10
2024-02-21T05:07:06.373Z,7.10
2024-02-21T05:09:41.105Z,7.16
2024-02-21T05:12:15.693Z,7.20
2024-02-21T05:14:50.544Z,7.20
2024-02-21T05:17:25.251Z,7.20
2024-02-21T05:20:00.339Z,7.20
2024-02-21T05:22:35.321Z,7.20
2024-02-21T05:25:11.823Z,7.20
2024-02-21T05:27:46.816Z,7.20
2024-02-21T05:30:21.944Z,7.20
2024-02-21T05:32:56.577Z,7.20
2024-02-21T05:35:33.213Z,7.20
2024-02-21T05:38:13.021Z,7.20
2024-02-21T05:40:48.635Z,7.20
2024-02-21T05:43:23.249Z,7.28
2024-02-21T05:45:57.958Z,7.30
2024-02-21T05:48:36.014Z,7.30
2024-02-21T05:51:12.753Z,7.34
2024-02-21T05:53:47.133Z,7.36
2024-02-21T05:56:21.614Z,7.32
2024-02-21T05:58:56.442Z,7.30
2024-02-21T06:01:31.178Z,7.36
2024-02-21T06:04:06.065Z,7.40
2024-02-21T06:06:41.117Z,7.40
2024-02-21T06:09:15.837Z,7.40
2024-02-21T06:11:50.692Z,7.40
2024-02-21T06:14:25.561Z,7.40
2024-02-21T06:17:00.026Z,7.40
2024-02-21T06:19:34.644Z,7.40
2024-02-21T06:22:09.365Z,7.50
2024-02-21T06:24:43.841Z,7.50
2024-02-21T06:27:18.682Z,7.50
2024-02-21T06:29:53.491Z,7.60
2024-02-21T06:32:27.952Z,7.62
2024-02-21T06:35:03.752Z,7.70
2024-02-21T06:37:39.801Z,7.70
2024-02-21T06:40:15.080Z,7.74
2024-02-21T06:42:49.723Z,7.80
2024-02-21T06:45:24.305Z,7.80
2024-02-21T06:47:58.787Z,7.80
2024-02-21T06:50:33.541Z,7.90
2024-02-21T06:53:08.501Z,7.90
2024-02-21T06:55:43.163Z,8.00
2024-02-21T06:58:18.360Z,8.00
2024-02-21T07:00:53.226Z,8.00
2024-02-21T07:03:27.785Z,8.10
2024-02-21T07:06:02.940Z,8.10
2024-02-21T07:08:37.587Z,8.20
2024-02-21T07:11:12.682Z,8.20
2024-02-21T07:13:47.416Z,8.30
2024-02-21T07:16:22.057Z,8.40
2024-02-21T07:18:56.395Z,8.46
2024-02-21T07:21:31.230Z,8.50
2024-02-21T07:24:05.842Z,8.60
2024-02-21T07:26:43.225Z,8.70
2024-02-21T07:29:17.501Z,8.70
2024-02-21T07:31:53.235Z,8.72
2024-02-21T07:34:28.062Z,8.80
2024-02-21T07:37:03.288Z,8.80
2024-02-21T07:39:39.808Z,8.80
2024-02-21T07:42:14.245Z,8.80
2024-02-21T07:44:48.727Z,8.80
2024-02-21T07:47:23.078Z,8.80
2024-02-21T07:49:57.671Z,8.80
2024-02-21T07:52:32.685Z,8.80
2024-02-21T07:55:07.758Z,8.80
2024-02-21T07:57:42.083Z,8.84
2024-02-21T08:00:21.499Z,8.90
2024-02-21T08:02:56.085Z,8.88
2024-02-21T08:05:31.530Z,8.90
2024-02-21T08:08:11.405Z,8.90
2024-02-21T08:10:47.200Z,9.00
2024-02-21T08:13:22.201Z,9.00
2024-02-21T08:15:56.843Z,9.00
2024-02-21T08:18:31.604Z,9.00
2024-02-21T08:21:07.383Z,9.00
2024-02-21T08:23:44.390Z,9.00
2024-02-21T08:26:19.003Z,9.00
2024-02-21T08:28:53.848Z,9.00
2024-02-21T08:31:32.518Z,9.00
2024-02-21T08:34:07.589Z,9.00
2024-02-21T08:36:42.555Z,9.00
2024-02-21T08:39:18.062Z,9.00
2024-02-21T08:41:57.535Z,9.10
2024-02-21T08:44:34.152Z,9.20
2024-02-21T08:47:11.463Z,9.20
2024-02-21T08:49:46.547Z,9.30
2024-02-21T08:52:21.651Z,9.30
2024-02-21T08:54:56.312Z,9.40
2024-02-21T08:57:37.642Z,9.50
2024-02-21T09:00:15.655Z,9.50
2024-02-21T09:02:50.322Z,9.50
2024-02-21T09:05:26.586Z,9.52
2024-02-21T09:08:01.494Z,9.60
2024-02-21T09:10:36.415Z,9.60
2024-02-21T09:13:11.004Z,9.60
2024-02-21T09:15:46.668Z,9.60
2024-02-21T09:18:21.626Z,9.60
2024-02-21T09:20:56.111Z,9.50
2024-02-21T09:23:32.857Z,9.50
2024-02-21T09:26:09.396Z,9.56
2024-02-21T09:28:43.849Z,9.54
2024-02-21T09:31:18.735Z,9.60
2024-02-21T09:33:53.474Z,9.60
2024-02-21T09:36:28.199Z,9.60
2024-02-21T09:39:06.460Z,9.70
2024-02-21T09:41:48.771Z,9.70
2024-02-21T09:44:23.967Z,9.70
2024-02-21T09:47:09.250Z,9.80
2024-02-21T09:49:45.201Z,9.90
2024-02-21T09:52:22.929Z,10.00
2024-02-21T09:54:58.522Z,10.10
2024-02-21T09:57:33.239Z,10.10
2024-02-21T10:00:09.876Z,10.10
2024-02-21T10:02:47.281Z,10.00
2024-02-21T10:05:22.411Z,10.00
2024-02-21T10:07:58.383Z,9.90
2024-02-21T10:10:42.837Z,9.86
2024-02-21T10:13:31.779Z,9.80
2024-02-21T10:16:11.242Z,9.74
2024-02-21T10:18:47.279Z,9.74
2024-02-21T10:21:24.263Z,9.70
2024-02-21T10:24:09.610Z,9.70
2024-02-21T10:26:44.132Z,9.70
2024-02-21T10:29:18.986Z,9.70
2024-02-21T10:31:55.073Z,9.70
2024-02-21T10:34:30.470Z,9.70
2024-02-21T10:37:08.531Z,9.70
2024-02-21T10:39:46.111Z,9.70
2024-02-21T10:42:28.769Z,9.70
2024-02-21T10:45:09.685Z,9.70
2024-02-21T10:47:51.418Z,9.70
2024-02-21T10:50:32.735Z,9.70
2024-02-21T10:53:26.294Z,9.70
2024-02-21T10:56:18.414Z,9.70
2024-02-21T10:58:54.961Z,9.80
2024-02-21T11:01:33.682Z,9.82
2024-02-21T11:04:13.721Z,9.90
2024-02-21T11:06:50.017Z,9.90
2024-02-21T11:09:39.988Z,9.92
2024-02-21T11:12:24.736Z,9.94
2024-02-21T11:15:10.063Z,9.94
2024-02-21T11:18:01.089Z,10.00
2024-02-21T11:29:04.735Z,10.18
2024-02-21T11:31:47.101Z,10.20
2024-02-21T11:34:23.143Z,10.30
2024-02-21T11:36:59.014Z,10.32
2024-02-21T11:39:39.540Z,10.42
2024-02-21T11:42:13.331Z,10.52
2024-02-21T11:44:45.928Z,10.60
2024-02-21T11:47:21.802Z,10.60
2024-02-21T11:49:55.944Z,10.70
2024-02-21T11:52:29.545Z,10.70
2024-02-21T11:55:05.218Z,10.70
2024-02-21T11:57:36.081Z,10.70
2024-02-21T12:00:17.938Z,10.72
2024-02-21T12:02:49.020Z,10.90
2024-02-21T12:05:21.104Z,11.00
2024-02-21T12:07:51.693Z,11.00
2024-02-21T12:10:22.175Z,10.90
2024-02-21T12:12:52.646Z,10.80
2024-02-21T12:15:23.263Z,10.70
2024-02-21T12:17:53.883Z,10.70
2024-02-21T12:20:24.669Z,10.70
2024-02-21T12:22:55.355Z,10.70
2024-02-21T12:25:27.634Z,10.78
2024-02-21T12:28:00.252Z,10.80
2024-02-21T12:30:33.971Z,10.82
2024-02-21T12:33:04.779Z,10.80
2024-02-21T12:35:35.266Z,10.80
2024-02-21T12:38:06.856Z,10.80
2024-02-21T12:40:37.174Z,10.70
2024-02-21T12:43:07.704Z,10.70
2024-02-21T12:45:37.937Z,10.70
2024-02-21T12:48:09.345Z,10.70
2024-02-21T12:50:39.915Z,10.70
2024-02-21T12:53:20.062Z,10.70
2024-02-21T12:55:57.216Z,10.74
2024-02-21T12:58:27.507Z,10.80
2024-02-21T13:00:57.762Z,10.80
2024-02-21T13:03:29.782Z,10.80
2024-02-21T13:06:02.210Z,10.76
2024-02-21T13:08:34.993Z,10.70
2024-02-21T13:11:06.183Z,10.70
2024-02-21T13:13:36.706Z,10.70
2024-02-21T13:16:08.761Z,10.70
2024-02-21T13:18:40.431Z,10.62
2024-02-21T13:21:11.314Z,10.64
2024-02-21T13:23:44.684Z,10.64
2024-02-21T13:26:16.088Z,10.68
2024-02-21T13:28:48.512Z,10.70
2024-02-21T13:31:19.241Z,10.72
2024-02-21T13:33:49.617Z,10.80
2024-02-21T13:36:19.987Z,10.80
2024-02-21T13:38:51.986Z,10.80
2024-02-21T13:41:24.892Z,10.88
2024-02-21T13:43:55.210Z,10.90
2024-02-21T13:46:32.999Z,11.00
2024-02-21T13:49:07.514Z,11.02
2024-02-21T13:51:45.534Z,11.10
2024-02-21T13:54:22.123Z,11.10
2024-02-21T13:56:52.600Z,11.20
2024-02-21T13:59:24.743Z,11.20
2024-02-21T14:01:57.701Z,11.20
2024-02-21T14:04:31.076Z,11.20
2024-02-21T14:07:04.634Z,11.30
2024-02-21T14:09:36.530Z,11.32
2024-02-21T14:12:09.228Z,11.40
2024-02-21T14:14:40.679Z,11.40
2024-02-21T14:17:11.172Z,11.40
2024-02-21T14:19:42.234Z,11.50
2024-02-21T14:22:13.080Z,11.50
2024-02-21T14:24:43.707Z,11.56
2024-02-21T14:27:14.245Z,11.60
2024-02-21T14:29:44.678Z,11.52
2024-02-21T14:32:16.321Z,11.52
2024-02-21T14:34:46.745Z,11.50
2024-02-21T14:37:18.057Z,11.50
2024-02-21T14:39:48.767Z,11.50
2024-02-21T14:42:19.818Z,11.50
2024-02-21T14:44:50.729Z,11.50
2024-02-21T14:47:21.009Z,11.50
2024-02-21T14:49:52.567Z,11.50
2024-02-21T14:52:25.212Z,11.60
2024-02-21T14:54:56.473Z,11.56
2024-02-21T14:57:26.653Z,11.50
2024-02-21T14:59:59.321Z,11.50
2024-02-21T15:02:30.292Z,11.42
2024-02-21T15:05:00.929Z,11.40
2024-02-21T15:07:31.766Z,11.40
2024-02-21T15:10:03.336Z,11.30
2024-02-21T15:12:33.767Z,11.30
2024-02-21T15:15:05.283Z,11.28
2024-02-21T15:17:35.815Z,11.24
2024-02-21T15:20:09.532Z,11.20
2024-02-21T15:22:40.559Z,11.20
2024-02-21T15:25:15.489Z,11.20
2024-02-21T15:27:46.492Z,11.20
2024-02-21T15:30:19.302Z,11.10
2024-02-21T15:32:51.622Z,11.10
2024-02-21T15:35:22.804Z,11.10
2024-02-21T15:37:53.520Z,11.00
2024-02-21T15:40:24.173Z,11.00
2024-02-21T15:42:55.338Z,11.00
2024-02-21T15:45:25.960Z,11.00
2024-02-21T15:47:56.756Z,10.90
2024-02-21T15:50:28.770Z,10.90
2024-02-21T15:53:03.077Z,10.80
2024-02-21T15:55:34.807Z,10.80
2024-02-21T15:58:06.119Z,10.72
2024-02-21T16:00:36.948Z,10.70
2024-02-21T16:03:08.459Z,10.70
2024-02-21T16:05:39.889Z,10.60
2024-02-21T16:08:10.676Z,10.60
2024-02-21T16:10:41.653Z,10.50
2024-02-21T16:13:12.759Z,10.50
2024-02-21T16:15:45.380Z,10.50
2024-02-21T16:18:20.911Z,10.50
2024-02-21T16:20:52.293Z,10.50
2024-02-21T16:23:23.221Z,10.50
2024-02-21T16:25:54.456Z,10.40
2024-02-21T16:28:26.578Z,10.30
2024-02-21T16:30:58.589Z,10.28
2024-02-21T16:33:29.304Z,10.20
2024-02-21T16:36:00.895Z,10.20
2024-02-21T16:38:33.665Z,10.20
2024-02-21T16:41:05.099Z,10.14
2024-02-21T16:43:36.024Z,10.10
2024-02-21T16:46:07.238Z,10.10
2024-02-21T16:48:38.824Z,10.10
2024-02-21T16:51:11.021Z,10.10
2024-02-21T16:53:42.013Z,10.00
2024-02-21T16:56:13.513Z,9.90
2024-02-21T16:58:44.429Z,9.90
2024-02-21T17:01:21.341Z,9.80
2024-02-21T17:03:54.622Z,9.80
2024-02-21T17:06:26.531Z,9.70
2024-02-21T17:08:58.391Z,9.68
2024-02-21T17:11:30.040Z,9.60
2024-02-21T17:14:01.788Z,9.60
2024-02-21T17:16:32.798Z,9.50
2024-02-21T17:19:06.044Z,9.50
2024-02-21T17:21:38.418Z,9.40
2024-02-21T17:24:10.649Z,9.34
2024-02-21T17:26:41.507Z,9.30
2024-02-21T17:29:14.428Z,9.20
2024-02-21T17:31:46.232Z,9.20
2024-02-21T17:34:18.693Z,9.10
2024-02-21T17:36:50.131Z,9.10
2024-02-21T17:39:20.997Z,9.00
2024-02-21T17:41:53.890Z,8.92
2024-02-21T17:44:25.622Z,8.90
2024-02-21T17:46:56.868Z,8.90
2024-02-21T17:49:27.889Z,8.80
2024-02-21T17:51:58.996Z,8.78
2024-02-21T17:54:30.623Z,8.70
2024-02-21T17:57:03.408Z,8.70
2024-02-21T17:59:35.223Z,8.60
2024-02-21T18:02:06.624Z,8.54
2024-02-21T18:04:37.652Z,8.40
2024-02-21T18:07:09.029Z,8.30
2024-02-21T18:09:39.827Z,8.20
2024-02-21T18:12:11.732Z,8.10
2024-02-21T18:14:42.410Z,8.00
2024-02-21T18:17:15.058Z,8.00
2024-02-21T18:19:46.481Z,8.00
2024-02-21T18:22:16.986Z,7.92
2024-02-21T18:24:47.603Z,7.90
2024-02-21T18:27:18.365Z,7.80
2024-02-21T18:29:49.056Z,7.78
2024-02-21T18:32:19.634Z,7.70
2024-02-21T18:34:50.428Z,7.70
2024-02-21T18:37:21.919Z,7.60
2024-02-21T18:39:54.980Z,7.56
2024-02-21T18:42:25.462Z,7.50
2024-02-21T18:44:56.606Z,7.40
2024-02-21T18:47:27.266Z,7.40
2024-02-21T18:49:58.502Z,7.30
2024-02-21T18:52:36.320Z,7.20
2024-02-21T18:55:18.323Z,7.20
2024-02-21T18:57:49.286Z,7.10
2024-02-21T19:00:23.363Z,7.00
2024-02-21T19:02:54.415Z,6.96
2024-02-21T19:05:25.306Z,6.90
2024-02-21T19:07:56.183Z,6.80
2024-02-21T19:10:27.972Z,6.80
2024-02-21T19:12:58.747Z,6.70
2024-02-21T19:15:30.183Z,6.70
2024-02-21T19:18:01.385Z,6.60
2024-02-21T19:20:40.938Z,6.50
2024-02-21T19:23:12.250Z,6.40
2024-02-21T19:25:43.326Z,6.40
2024-02-21T19:28:14.217Z,6.30
2024-02-21T19:30:44.775Z,6.30
2024-02-21T19:33:15.470Z,6.20
2024-02-21T19:35:46.632Z,6.10
2024-02-21T19:38:17.401Z,6.10
2024-02-21T19:40:50.766Z,6.02
2024-02-21T19:43:23.344Z,6.00
2024-02-21T19:45:54.264Z,6.00
2024-02-21T19:48:25.358Z,5.96
2024-02-21T19:50:57.414Z,5.90
2024-02-21T19:53:29.070Z,5.90
2024-02-21T19:55:59.751Z,5.90
2024-02-21T19:58:32.614Z,5.90
2024-02-21T20:01:06.462Z,5.80
2024-02-21T20:03:38.871Z,5.80
2024-02-21T20:06:10.712Z,5.72
2024-02-21T20:08:41.789Z,5.78
2024-02-21T20:11:14.015Z,5.70
2024-02-21T20:13:45.652Z,5.70
2024-02-21T20:16:16.362Z,5.70
2024-02-21T20:18:47.194Z,5.66
2024-02-21T20:21:17.876Z,5.60
2024-02-21T20:23:48.842Z,5.60
2024-02-21T20:26:19.712Z,5.60
2024-02-21T20:28:50.964Z,5.60
2024-02-21T20:31:22.219Z,5.50
2024-02-21T20:33:53.592Z,5.50
2024-02-21T20:36:24.990Z,5.50
2024-02-21T20:38:55.967Z,5.42
2024-02-21T20:41:26.884Z,5.40
2024-02-21T20:43:57.649Z,5.40
2024-02-21T20:46:29.793Z,5.40
2024-02-21T20:49:01.022Z,5.40
2024-02-21T20:51:32.218Z,5.40
2024-02-21T20:54:03.668Z,5.38
2024-02-21T20:56:35.173Z,5.40
2024-02-21T20:59:06.785Z,5.38
2024-02-21T21:01:44.444Z,5.30
2024-02-21T21:04:24.418Z,5.30
2024-02-21T21:06:55.894Z,5.30
2024-02-21T21:09:27.364Z,5.20
2024-02-21T21:11:59.597Z,5.20
2024-02-21T21:14:30.682Z,5.20
2024-02-21T21:17:03.978Z,5.20
2024-02-21T21:19:35.223Z,5.20
2024-02-21T21:22:06.681Z,5.10
2024-02-21T21:24:37.667Z,5.10
2024-02-21T21:27:09.104Z,5.10
2024-02-21T21:29:39.908Z,5.10
2024-02-21T21:32:12.233Z,5.10
2024-02-21T21:34:44.234Z,5.10
2024-02-21T21:37:15.862Z,5.10
2024-02-21T21:39:54.876Z,5.06
2024-02-21T21:42:26.016Z,5.02
2024-02-21T21:44:56.860Z,5.06
2024-02-21T21:47:28.039Z,5.10
2024-02-21T21:49:58.687Z,5.10
2024-02-21T21:52:31.367Z,5.10
2024-02-21T21:55:02.926Z,5.00
2024-02-21T21:57:33.420Z,5.00
2024-02-21T22:00:05.066Z,4.98
2024-02-21T22:02:47.869Z,5.00
2024-02-21T22:05:19.329Z,5.00
2024-02-21T22:07:50.191Z,5.00
2024-02-21T22:10:20.600Z,5.00
2024-02-21T22:12:51.633Z,4.92
2024-02-21T22:15:22.095Z,4.90
2024-02-21T22:17:53.014Z,4.90
2024-02-21T22:20:25.733Z,4.90
2024-02-21T22:22:56.373Z,4.90
2024-02-21T22:25:27.537Z,4.84
2024-02-21T22:27:58.417Z,4.80
2024-02-21T22:30:29.531Z,4.80
2024-02-21T22:33:00.309Z,4.80
2024-02-21T22:35:31.157Z,4.80
2024-02-21T22:38:01.931Z,4.90
2024-02-21T22:40:32.900Z,4.90
2024-02-21T22:43:03.391Z,4.94
2024-02-21T22:45:34.029Z,5.00
2024-02-21T22:48:05.208Z,4.90
2024-02-21T22:50:35.550Z,4.92
2024-02-21T22:53:07.046Z,5.00
2024-02-21T22:55:37.600Z,5.00
2024-02-21T22:58:08.003Z,5.02
2024-02-21T23:00:38.737Z,5.10
2024-02-21T23:03:11.929Z,5.10
2024-02-21T23:05:42.524Z,5.10
2024-02-21T23:08:13.398Z,5.10
2024-02-21T23:10:46.669Z,5.18
2024-02-21T23:13:18.856Z,5.20
2024-02-21T23:15:51.869Z,5.20
2024-02-21T23:18:22.763Z,5.26
2024-02-21T23:20:54.010Z,5.28
2024-02-21T23:23:26.272Z,5.22
2024-02-21T23:25:57.089Z,5.30
2024-02-21T23:28:28.285Z,5.30
2024-02-21T23:30:58.776Z,5.30
2024-02-21T23:33:34.599Z,5.30
2024-02-21T23:36:10.098Z,5.30
2024-02-21T23:38:40.537Z,5.40
2024-02-21T23:41:11.518Z,5.40
2024-02-21T23:43:44.734Z,5.50
2024-02-21T23:46:19.902Z,5.50
2024-02-21T23:48:50.557Z,5.50
2024-02-21T23:51:21.521Z,5.58
2024-02-21T23:53:52.145Z,5.60
2024-02-21T23:56:22.951Z,5.60
2024-02-21T23:58:53.749Z,5.70
